createdAt,value
2019-04-07T14:47:42.474Z,2.60
2019-04-07T14:50:30.883Z,2.00
2019-04-07T14:53:26.513Z,2.27
2019-04-07T14:56:10.032Z,2.55
2019-04-07T14:58:58.894Z,3.50
2019-04-07T15:01:47.871Z,2.35
2019-04-07T15:04:18.193Z,1.90
2019-04-07T15:06:53.760Z,2.12
2019-04-07T15:09:32.392Z,2.27
2019-04-07T15:12:24.033Z,2.30
2019-04-07T15:14:52.622Z,2.17
2019-04-07T15:17:23.108Z,2.85
2019-04-07T15:19:53.569Z,2.20
2019-04-07T15:22:28.882Z,2.33
2019-04-07T15:24:57.005Z,2.10
2019-04-07T15:27:27.290Z,2.25
2019-04-07T15:29:57.812Z,1.80
2019-04-07T15:32:28.968Z,2.10
2019-04-07T15:35:00.113Z,2.12
2019-04-07T15:37:30.225Z,2.00
2019-04-07T15:40:02.682Z,2.22
2019-04-07T15:42:40.300Z,2.27
2019-04-07T15:45:04.905Z,2.70
2019-04-07T15:47:35.994Z,1.80
2019-04-07T15:50:08.489Z,1.65
2019-04-07T15:52:43.677Z,1.95
2019-04-07T15:55:13.486Z,1.70
2019-04-07T15:57:44.015Z,1.72
2019-04-07T16:00:15.345Z,2.08
2019-04-07T16:02:46.100Z,1.70
2019-04-07T16:05:16.183Z,1.80
2019-04-07T16:07:46.720Z,1.87
2019-04-07T16:10:21.232Z,1.90
2019-04-07T16:12:52.206Z,1.67
2019-04-07T16:15:23.189Z,2.08
2019-04-07T16:17:53.195Z,2.02
2019-04-07T16:20:26.278Z,1.50
2019-04-07T16:22:55.469Z,1.90
2019-04-07T16:25:30.703Z,1.90
2019-04-07T16:28:02.358Z,1.80
2019-04-07T16:30:32.806Z,1.50
2019-04-07T16:33:05.232Z,1.80
2019-04-07T16:35:34.954Z,2.10
2019-04-07T16:38:05.288Z,2.00
2019-04-07T16:40:35.232Z,2.08
2019-04-07T16:43:14.583Z,1.90
2019-04-07T16:45:40.025Z,2.15
2019-04-07T16:48:10.819Z,1.95
2019-04-07T16:50:41.771Z,2.20
2019-04-07T16:53:11.897Z,2.25
2019-04-07T16:55:46.605Z,2.10
2019-04-07T16:58:14.502Z,2.05
2019-04-07T17:00:47.481Z,2.00
2019-04-07T17:03:16.221Z,2.02
2019-04-07T17:05:46.353Z,2.00
2019-04-07T17:08:19.668Z,2.00
2019-04-07T17:10:48.619Z,2.10
2019-04-07T17:13:27.978Z,2.22
2019-04-07T17:15:51.982Z,2.00
2019-04-07T17:18:41.212Z,2.20
2019-04-07T17:21:14.005Z,1.90
2019-04-07T17:23:44.053Z,2.00
2019-04-07T17:26:14.252Z,2.10
2019-04-07T17:28:45.223Z,2.27
2019-04-07T17:31:15.720Z,2.40
2019-04-07T17:33:45.849Z,3.20
2019-04-07T17:36:20.116Z,2.20
2019-04-07T17:39:11.667Z,2.50
2019-04-07T17:41:41.740Z,2.83
2019-04-07T17:44:23.409Z,2.70
2019-04-07T17:47:11.647Z,2.67
2019-04-07T17:49:52.442Z,2.70
2019-04-07T17:52:48.293Z,2.60
2019-04-07T17:55:42.154Z,2.75
2019-04-07T17:58:22.201Z,2.90
2019-04-07T18:01:14.463Z,2.83
2019-04-07T18:04:13.966Z,2.70
2019-04-07T18:06:53.877Z,2.98
2019-04-07T18:09:35.795Z,2.60
2019-04-07T18:12:35.767Z,2.70
2019-04-07T18:15:25.192Z,2.55
2019-04-07T18:18:24.044Z,2.62
2019-04-07T18:21:02.402Z,2.90
2019-04-07T18:23:53.940Z,3.17
2019-04-07T18:26:41.571Z,2.80
2019-04-07T18:29:31.288Z,2.70
2019-04-07T18:32:36.252Z,2.42
2019-04-07T18:35:37.726Z,2.50
2019-04-07T18:38:21.797Z,2.87
2019-04-07T18:41:17.015Z,3.20
2019-04-07T18:44:15.197Z,2.80
2019-04-07T18:47:03.081Z,2.72
2019-04-07T18:49:55.033Z,2.98
2019-04-07T18:52:48.232Z,3.40
2019-04-07T18:55:38.994Z,3.45
2019-04-07T18:58:48.920Z,3.40
2019-04-07T19:01:46.909Z,3.22
2019-04-07T19:04:43.455Z,3.77
2019-04-07T19:07:24.688Z,3.65
2019-04-07T19:10:08.678Z,3.37
2019-04-07T19:12:49.523Z,3.47
2019-04-07T19:15:55.456Z,3.50
2019-04-07T19:18:36.597Z,3.60
2019-04-07T19:21:28.814Z,3.12
2019-04-07T19:24:18.390Z,3.20
2019-04-07T19:27:14.384Z,3.37
2019-04-07T19:29:55.349Z,3.20
2019-04-07T19:32:44.290Z,3.47
2019-04-07T19:35:41.915Z,3.47
2019-04-07T19:38:49.273Z,3.90
2019-04-07T19:41:48.874Z,3.62
2019-04-07T19:44:42.887Z,3.55
2019-04-07T19:47:22.717Z,3.60
2019-04-07T19:50:22.725Z,3.40
2019-04-07T19:53:14.304Z,3.77
2019-04-07T19:56:07.974Z,3.85
2019-04-07T19:58:59.835Z,3.95
2019-04-07T20:01:49.164Z,4.05
2019-04-07T20:04:51.031Z,3.92
2019-04-07T20:07:37.793Z,3.92
2019-04-07T20:10:38.692Z,4.65
2019-04-07T20:13:28.232Z,4.10
2019-04-07T20:16:16.403Z,4.90
2019-04-07T20:19:17.383Z,4.87
2019-04-07T20:21:56.871Z,4.97
2019-04-07T20:24:40.076Z,4.58
2019-04-07T20:27:26.063Z,4.80
2019-04-07T20:30:16.019Z,4.40
2019-04-07T20:33:00.715Z,4.42
2019-04-07T20:35:50.057Z,4.23
2019-04-07T20:38:42.224Z,4.10
2019-04-07T20:41:37.947Z,7.12
2019-04-07T20:44:32.543Z,5.42
2019-04-07T20:47:20.945Z,4.90
2019-04-07T20:50:14.331Z,5.03
2019-04-07T20:53:13.111Z,5.12
2019-04-07T20:55:51.961Z,5.45
2019-04-07T20:58:57.401Z,4.58
2019-04-07T21:01:58.706Z,5.42
2019-04-07T21:04:36.338Z,4.67
2019-04-07T21:07:25.393Z,4.58
2019-04-07T21:10:09.816Z,4.28
2019-04-07T21:12:58.206Z,4.70
2019-04-07T21:15:46.593Z,4.40
2019-04-07T21:18:39.135Z,4.78
2019-04-07T21:21:17.190Z,4.55
2019-04-07T21:24:05.746Z,4.60
2019-04-07T21:26:58.083Z,4.22
2019-04-07T21:29:34.465Z,4.50
2019-04-07T21:32:21.584Z,4.28
2019-04-07T21:35:13.723Z,4.00
2019-04-07T21:37:51.907Z,3.98
2019-04-07T21:40:42.284Z,3.77
2019-04-07T21:43:18.337Z,3.72
2019-04-07T21:46:06.696Z,4.15
2019-04-07T21:49:02.643Z,4.00
2019-04-07T21:51:48.371Z,3.90
2019-04-07T21:54:37.516Z,4.10
2019-04-07T21:57:21.408Z,4.37
2019-04-07T22:00:27.081Z,3.75
2019-04-07T22:03:16.830Z,4.08
2019-04-07T22:06:04.743Z,4.53
2019-04-07T22:08:43.963Z,5.00
2019-04-07T22:11:15.528Z,5.00
2019-04-07T22:13:45.615Z,5.10
2019-04-07T22:16:16.335Z,4.90
2019-04-07T22:18:47.052Z,4.87
2019-04-07T22:21:17.303Z,5.10
2019-04-07T22:23:47.108Z,5.28
2019-04-07T22:26:19.143Z,4.90
2019-04-07T22:28:48.495Z,4.50
2019-04-07T22:31:23.603Z,4.65
2019-04-07T22:33:56.856Z,5.28
2019-04-07T22:36:25.862Z,4.65
2019-04-07T22:38:58.740Z,4.97
2019-04-07T22:41:28.156Z,4.55
2019-04-07T22:43:58.185Z,4.75
2019-04-07T22:46:29.020Z,4.87
2019-04-07T22:48:59.638Z,4.05
2019-04-07T22:51:30.649Z,4.17
2019-04-07T22:54:01.493Z,3.80
2019-04-07T22:56:36.393Z,4.30
2019-04-07T22:59:04.222Z,4.33
2019-04-07T23:01:35.414Z,4.53
2019-04-07T23:04:05.628Z,4.37
2019-04-07T23:06:36.240Z,4.65
2019-04-07T23:09:07.883Z,3.95
2019-04-07T23:11:37.930Z,4.25
2019-04-07T23:14:07.865Z,4.75
2019-04-07T23:16:38.045Z,4.35
2019-04-07T23:19:08.834Z,4.90
2019-04-07T23:21:39.475Z,4.55
2019-04-07T23:24:10.851Z,4.25
2019-04-07T23:26:42.574Z,4.90
2019-04-07T23:29:12.608Z,4.03
2019-04-07T23:31:44.047Z,3.72
2019-04-07T23:34:14.733Z,4.85
2019-04-07T23:36:45.647Z,4.67
2019-04-07T23:39:15.654Z,4.60
2019-04-07T23:41:45.685Z,5.15
2019-04-07T23:44:16.085Z,4.90
2019-04-07T23:46:46.235Z,4.60
2019-04-07T23:49:16.066Z,4.72
2019-04-07T23:51:45.915Z,4.90
2019-04-07T23:54:16.430Z,4.45
2019-04-07T23:56:46.480Z,4.72
2019-04-07T23:59:16.788Z,4.78
